createdAt,value
2018-05-25T00:09:56.541Z,22.78
2018-05-25T00:12:25.002Z,22.79
2018-05-25T00:14:53.397Z,22.69
2018-05-25T00:17:21.751Z,22.80
2018-05-25T00:19:50.129Z,22.68
2018-05-25T00:22:18.646Z,22.96
2018-05-25T00:24:47.099Z,22.63
2018-05-25T00:27:15.472Z,22.47
2018-05-25T00:29:43.887Z,22.39
2018-05-25T00:32:12.255Z,22.38
2018-05-25T00:34:41.038Z,22.22
2018-05-25T00:37:09.431Z,22.35
2018-05-25T00:39:37.909Z,21.97
2018-05-25T00:42:06.291Z,22.61
2018-05-25T00:44:34.671Z,21.87
2018-05-25T00:47:03.042Z,21.82
2018-05-25T00:49:31.415Z,22.28
2018-05-25T00:51:59.780Z,22.18
2018-05-25T00:54:28.737Z,22.19
2018-05-25T00:56:57.103Z,22.02
2018-05-25T00:59:25.868Z,22.12
2018-05-25T01:01:54.832Z,22.17
2018-05-25T01:04:23.288Z,22.19
2018-05-25T01:06:51.649Z,22.27
2018-05-25T01:09:20.025Z,22.66
2018-05-25T01:11:48.404Z,22.39
2018-05-25T01:14:16.778Z,22.62
2018-05-25T01:16:45.181Z,22.30
2018-05-25T01:19:13.741Z,22.32
2018-05-25T01:21:42.499Z,22.69
2018-05-25T01:24:10.877Z,22.46
2018-05-25T01:26:39.336Z,22.55
2018-05-25T01:29:07.702Z,22.42
2018-05-25T01:31:36.104Z,22.46
2018-05-25T01:34:04.572Z,22.42
2018-05-25T01:36:32.975Z,22.14
2018-05-25T01:39:01.358Z,22.19
2018-05-25T01:41:29.834Z,21.95
2018-05-25T01:43:58.194Z,21.94
2018-05-25T01:46:26.616Z,21.73
2018-05-25T01:48:54.982Z,21.63
2018-05-25T01:51:23.394Z,21.92
2018-05-25T01:53:51.763Z,22.05
2018-05-25T01:56:20.136Z,22.15
2018-05-25T01:58:48.905Z,22.03
2018-05-25T02:01:17.328Z,22.13
2018-05-25T02:03:45.698Z,21.90
2018-05-25T02:06:14.235Z,21.88
2018-05-25T02:08:42.720Z,22.00
2018-05-25T02:11:11.114Z,21.74
2018-05-25T02:13:39.485Z,21.82
2018-05-25T02:16:07.877Z,21.72
2018-05-25T02:18:36.658Z,21.96
2018-05-25T02:21:05.407Z,21.60
2018-05-25T02:23:33.908Z,21.89
2018-05-25T02:26:02.268Z,21.72
2018-05-25T02:28:30.723Z,21.50
2018-05-25T02:30:59.118Z,21.62
2018-05-25T02:33:27.497Z,21.32
2018-05-25T02:35:55.864Z,21.64
2018-05-25T02:38:24.231Z,21.88
2018-05-25T02:40:52.581Z,21.41
2018-05-25T02:43:21.379Z,21.56
2018-05-25T02:45:50.136Z,21.75
2018-05-25T02:48:18.627Z,21.25
2018-05-25T02:50:46.982Z,21.10
2018-05-25T02:53:15.388Z,21.10
2018-05-25T02:55:43.767Z,21.30
2018-05-25T02:58:12.153Z,21.33
2018-05-25T03:00:40.924Z,21.23
2018-05-25T03:03:09.416Z,21.25
2018-05-25T03:05:37.866Z,21.27
2018-05-25T03:08:06.266Z,21.66
2018-05-25T03:10:34.645Z,21.54
2018-05-25T03:13:03.047Z,21.57
2018-05-25T03:15:32.274Z,21.37
2018-05-25T03:18:00.669Z,21.00
2018-05-25T03:20:29.071Z,21.34
2018-05-25T03:22:58.247Z,21.33
2018-05-25T03:25:26.610Z,21.51
2018-05-25T03:27:54.991Z,21.37
2018-05-25T03:30:23.370Z,21.35
2018-05-25T03:32:51.751Z,21.60
2018-05-25T03:35:20.171Z,21.41
2018-05-25T03:37:48.697Z,21.48
2018-05-25T03:40:17.062Z,21.76
2018-05-25T03:42:45.829Z,21.88
2018-05-25T03:45:14.178Z,21.57
2018-05-25T03:47:42.555Z,21.62
2018-05-25T03:50:11.155Z,21.77
2018-05-25T03:52:45.563Z,21.94
2018-05-25T03:55:13.951Z,21.63
2018-05-25T03:57:42.445Z,21.70
2018-05-25T04:00:28.570Z,21.94
2018-05-25T04:02:57.354Z,21.67
2018-05-25T04:05:26.121Z,21.76
2018-05-25T04:07:56.140Z,22.25
2018-05-25T04:10:24.526Z,23.24
2018-05-25T04:12:52.911Z,24.04
2018-05-25T04:15:21.672Z,24.37
2018-05-25T04:17:50.052Z,24.99
2018-05-25T04:20:18.480Z,26.01
2018-05-25T04:22:46.871Z,26.30
2018-05-25T04:25:15.296Z,27.08
2018-05-25T04:27:43.746Z,27.76
2018-05-25T04:30:12.174Z,28.01
2018-05-25T04:32:40.936Z,28.26
2018-05-25T04:35:09.345Z,28.94
2018-05-25T04:37:37.688Z,28.79
2018-05-25T04:40:06.123Z,29.30
2018-05-25T04:42:34.509Z,30.02
2018-05-25T04:45:02.869Z,29.95
2018-05-25T04:47:31.632Z,30.44
2018-05-25T04:49:59.986Z,30.97
2018-05-25T04:52:28.450Z,31.29
2018-05-25T04:54:57.218Z,31.76
2018-05-25T04:57:25.596Z,31.88
2018-05-25T04:59:53.958Z,31.80
2018-05-25T05:02:22.772Z,32.56
2018-05-25T05:04:51.143Z,33.02
2018-05-25T05:07:19.910Z,33.99
2018-05-25T05:09:48.714Z,34.53
2018-05-25T05:12:17.465Z,33.83
2018-05-25T05:14:45.883Z,33.78
2018-05-25T05:17:14.623Z,33.40
2018-05-25T05:19:42.995Z,33.90
2018-05-25T05:22:11.369Z,33.23
2018-05-25T05:24:39.730Z,34.14
2018-05-25T05:27:08.113Z,35.02
2018-05-25T05:29:36.499Z,35.12
2018-05-25T05:32:04.909Z,34.95
2018-05-25T05:34:33.294Z,34.38
2018-05-25T05:37:01.757Z,33.66
2018-05-25T05:39:30.117Z,33.96
2018-05-25T05:41:58.542Z,34.49
2018-05-25T05:44:26.991Z,35.39
2018-05-25T05:46:55.439Z,36.26
2018-05-25T05:49:23.801Z,35.87
2018-05-25T05:51:52.175Z,36.45
2018-05-25T05:54:20.943Z,37.30
2018-05-25T05:56:49.343Z,36.95
2018-05-25T05:59:17.807Z,36.65
2018-05-25T06:01:46.160Z,36.80
2018-05-25T06:04:14.540Z,38.05
2018-05-25T06:06:42.917Z,39.18
2018-05-25T06:09:11.374Z,39.62
2018-05-25T06:11:39.766Z,40.28
2018-05-25T06:14:08.157Z,38.88
2018-05-25T06:16:36.536Z,39.06
2018-05-25T06:19:04.942Z,39.26
2018-05-25T06:21:33.769Z,39.74
2018-05-25T06:24:02.130Z,38.59
2018-05-25T06:26:30.892Z,38.14
2018-05-25T06:28:59.248Z,37.69
2018-05-25T06:31:27.615Z,37.07
2018-05-25T06:33:55.974Z,37.75
2018-05-25T06:36:24.351Z,38.02
2018-05-25T06:38:52.727Z,38.78
2018-05-25T06:41:21.130Z,40.00
2018-05-25T06:43:49.490Z,40.62
2018-05-25T06:46:17.925Z,40.74
2018-05-25T06:48:46.748Z,41.12
2018-05-25T06:51:15.125Z,40.68
2018-05-25T06:53:43.551Z,41.31
2018-05-25T06:56:12.138Z,41.09
2018-05-25T06:58:40.490Z,41.21
2018-05-25T07:01:08.870Z,42.31
2018-05-25T07:03:37.232Z,41.88
2018-05-25T07:06:05.646Z,41.61
2018-05-25T07:08:34.094Z,41.66
2018-05-25T07:11:02.521Z,42.07
2018-05-25T07:13:30.999Z,43.40
2018-05-25T07:15:59.468Z,43.63
2018-05-25T07:18:27.887Z,43.58
2018-05-25T07:20:56.655Z,43.49
2018-05-25T07:23:25.241Z,43.42
2018-05-25T07:25:53.618Z,43.45
2018-05-25T07:28:21.991Z,43.05
2018-05-25T07:30:50.373Z,43.17
2018-05-25T07:33:19.003Z,42.51
2018-05-25T07:35:47.405Z,41.96
2018-05-25T07:38:15.775Z,41.41
2018-05-25T07:40:44.164Z,41.63
2018-05-25T07:43:12.525Z,41.78
2018-05-25T07:45:49.195Z,42.40
2018-05-25T07:48:17.579Z,43.81
2018-05-25T07:50:46.062Z,43.92
2018-05-25T07:53:14.431Z,44.36
2018-05-25T07:55:42.864Z,44.87
2018-05-25T07:58:11.261Z,45.20
2018-05-25T08:00:40.039Z,45.86
2018-05-25T08:03:08.499Z,46.50
2018-05-25T08:05:36.982Z,46.69
2018-05-25T08:08:05.568Z,45.65
2018-05-25T08:10:33.963Z,45.27
2018-05-25T08:13:02.756Z,45.04
2018-05-25T08:15:31.147Z,44.82
2018-05-25T08:17:59.530Z,44.22
2018-05-25T08:20:27.911Z,44.03
2018-05-25T08:22:56.386Z,44.14
2018-05-25T08:25:24.774Z,44.47
2018-05-25T08:27:53.261Z,44.31
2018-05-25T08:30:22.494Z,45.07
2018-05-25T08:32:50.929Z,45.06
2018-05-25T08:35:19.338Z,45.57
2018-05-25T08:37:47.856Z,45.80
2018-05-25T08:40:16.716Z,45.39
2018-05-25T08:42:45.134Z,44.46
2018-05-25T08:45:13.525Z,43.73
2018-05-25T08:47:41.913Z,43.76
2018-05-25T08:50:10.786Z,43.07
2018-05-25T08:52:39.170Z,43.30
2018-05-25T08:55:07.659Z,44.44
2018-05-25T08:57:36.438Z,45.11
2018-05-25T09:00:04.836Z,45.58
2018-05-25T09:02:33.610Z,45.19
2018-05-25T09:05:01.975Z,45.78
2018-05-25T09:07:30.354Z,46.04
2018-05-25T09:09:58.733Z,44.05
2018-05-25T09:12:27.184Z,43.94
2018-05-25T09:14:55.955Z,44.40
2018-05-25T09:17:24.403Z,45.70
2018-05-25T09:19:52.796Z,44.45
2018-05-25T09:22:21.571Z,44.53
2018-05-25T09:24:50.013Z,45.03
2018-05-25T09:27:18.466Z,45.41
2018-05-25T09:29:46.859Z,44.59
2018-05-25T09:32:15.266Z,43.95
2018-05-25T09:34:43.630Z,44.06
2018-05-25T09:37:11.998Z,44.50
2018-05-25T09:39:40.389Z,44.29
2018-05-25T09:42:08.819Z,43.32
2018-05-25T09:44:37.659Z,43.38
2018-05-25T09:47:06.024Z,43.48
2018-05-25T09:49:34.412Z,43.87
2018-05-25T09:52:02.816Z,44.28
2018-05-25T09:54:31.195Z,44.56
2018-05-25T09:57:01.647Z,44.76
2018-05-25T09:59:30.421Z,44.25
2018-05-25T10:01:58.836Z,43.76
2018-05-25T10:04:27.253Z,43.67
2018-05-25T10:06:55.623Z,43.88
2018-05-25T10:09:24.002Z,42.91
2018-05-25T10:11:52.375Z,42.95
2018-05-25T10:14:20.766Z,43.78
2018-05-25T10:16:49.139Z,43.73
2018-05-25T10:19:17.487Z,43.83
2018-05-25T10:21:45.856Z,43.72
2018-05-25T10:24:14.221Z,41.66
2018-05-25T10:26:42.600Z,40.83
2018-05-25T10:29:11.367Z,39.10
2018-05-25T10:31:39.848Z,37.77
2018-05-25T10:34:08.218Z,39.47
2018-05-25T10:36:36.590Z,39.76
2018-05-25T10:39:05.569Z,40.28
2018-05-25T10:41:33.987Z,41.30
2018-05-25T10:44:02.366Z,41.03
2018-05-25T10:46:30.743Z,41.01
2018-05-25T10:48:59.127Z,38.40
2018-05-25T10:51:27.949Z,36.73
2018-05-25T10:53:56.323Z,35.48
2018-05-25T10:56:24.701Z,35.43
2018-05-25T10:58:53.062Z,34.82
2018-05-25T11:01:21.919Z,35.27
2018-05-25T11:03:50.349Z,36.88
2018-05-25T11:06:18.767Z,38.03
2018-05-25T11:08:47.159Z,37.60
2018-05-25T11:11:15.536Z,36.56
2018-05-25T11:13:43.916Z,36.08
2018-05-25T11:16:12.308Z,35.98
2018-05-25T11:18:40.658Z,35.88
2018-05-25T11:21:09.079Z,35.62
2018-05-25T11:23:37.977Z,35.69
2018-05-25T11:26:06.797Z,35.15
2018-05-25T11:28:35.175Z,34.66
2018-05-25T11:31:03.590Z,33.77
2018-05-25T11:33:31.968Z,33.30
2018-05-25T11:36:00.336Z,32.28
2018-05-25T11:38:28.698Z,32.50
2018-05-25T11:40:57.105Z,32.14
2018-05-25T11:43:25.504Z,32.92
2018-05-25T11:45:53.914Z,32.39
2018-05-25T11:48:22.307Z,31.71
2018-05-25T11:50:50.721Z,32.14
2018-05-25T11:53:19.090Z,32.55
2018-05-25T11:55:47.479Z,32.14
2018-05-25T11:58:15.892Z,32.49
2018-05-25T12:00:44.663Z,32.81
2018-05-25T12:03:13.545Z,32.93
2018-05-25T12:05:41.926Z,33.47
2018-05-25T12:08:10.301Z,32.50
2018-05-25T12:10:38.764Z,32.74
2018-05-25T12:13:07.137Z,33.17
2018-05-25T12:15:35.515Z,32.60
2018-05-25T12:18:03.914Z,32.60
2018-05-25T12:20:32.300Z,32.30
2018-05-25T12:23:00.690Z,32.21
2018-05-25T12:25:29.066Z,32.36
2018-05-25T12:27:57.418Z,32.80
2018-05-25T12:30:25.796Z,32.48
2018-05-25T12:32:54.166Z,32.34
2018-05-25T12:35:22.574Z,32.29
2018-05-25T12:37:51.114Z,32.58
2018-05-25T12:40:19.517Z,32.39
2018-05-25T12:42:48.050Z,32.81
2018-05-25T12:45:17.097Z,32.61
2018-05-25T12:47:45.536Z,33.68
2018-05-25T12:50:13.922Z,34.52
2018-05-25T12:52:42.308Z,34.27
2018-05-25T12:55:10.721Z,33.37
2018-05-25T12:57:39.211Z,33.34
2018-05-25T13:00:07.650Z,32.93
2018-05-25T13:02:36.042Z,32.91
2018-05-25T13:05:05.957Z,32.93
2018-05-25T13:07:34.346Z,33.07
2018-05-25T13:10:02.706Z,32.65
2018-05-25T13:12:31.099Z,33.10
2018-05-25T13:14:59.464Z,33.37
2018-05-25T13:17:27.840Z,31.75
2018-05-25T13:19:56.195Z,32.45
2018-05-25T13:22:24.989Z,32.69
2018-05-25T13:27:27.991Z,32.33
2018-05-25T13:29:56.363Z,32.81
2018-05-25T13:32:24.807Z,33.17
2018-05-25T13:34:53.174Z,31.96
2018-05-25T13:37:21.544Z,32.24
2018-05-25T13:39:49.914Z,32.46
2018-05-25T13:44:59.319Z,32.30
2018-05-25T13:47:28.102Z,31.55
2018-05-25T13:49:56.469Z,31.92
2018-05-25T13:52:24.834Z,32.24
2018-05-25T13:54:53.219Z,32.23
2018-05-25T13:57:21.590Z,31.42
2018-05-25T13:59:49.966Z,31.87
2018-05-25T14:02:18.353Z,31.59
2018-05-25T14:04:46.780Z,30.73
2018-05-25T14:07:15.155Z,31.32
2018-05-25T14:09:43.525Z,31.43
2018-05-25T14:12:12.290Z,31.57
2018-05-25T14:14:40.655Z,31.54
2018-05-25T14:17:09.039Z,32.35
2018-05-25T14:19:37.421Z,31.97
2018-05-25T14:57:38.795Z,32.05
2018-05-25T15:03:04.699Z,31.61
2018-05-25T15:05:33.103Z,31.39
2018-05-25T15:08:01.496Z,31.65
2018-05-25T15:10:29.947Z,31.93
2018-05-25T15:12:58.333Z,32.48
2018-05-25T15:15:26.704Z,31.60
2018-05-25T15:17:55.078Z,31.46
2018-05-25T15:20:23.490Z,31.67
2018-05-25T15:22:51.867Z,31.67
2018-05-25T15:25:20.233Z,32.06
2018-05-25T15:27:48.663Z,32.21
2018-05-25T15:30:17.103Z,32.17
2018-05-25T15:32:45.761Z,31.96
2018-05-25T15:35:14.599Z,31.29
2018-05-25T15:37:42.965Z,30.98
2018-05-25T15:40:11.327Z,31.40
2018-05-25T15:42:40.389Z,30.61
2018-05-25T15:45:09.162Z,31.06
2018-05-25T15:47:37.659Z,31.34
2018-05-25T15:50:06.010Z,31.33
2018-05-25T15:52:34.375Z,30.97
2018-05-25T15:55:02.849Z,31.41
2018-05-25T15:57:31.215Z,31.28
2018-05-25T15:59:59.613Z,31.38
2018-05-25T16:02:27.997Z,31.64
2018-05-25T16:04:56.438Z,31.43
2018-05-25T16:07:25.385Z,31.74
2018-05-25T16:09:53.842Z,32.00
2018-05-25T16:12:22.214Z,31.48
2018-05-25T16:14:50.594Z,31.73
2018-05-25T16:17:19.010Z,31.57
2018-05-25T16:19:47.783Z,30.99
2018-05-25T16:22:16.142Z,30.39
2018-05-25T16:24:44.519Z,31.15
2018-05-25T16:27:12.869Z,31.56
2018-05-25T16:29:42.269Z,31.12
2018-05-25T16:32:10.669Z,30.62
2018-05-25T16:34:39.037Z,31.02
2018-05-25T16:37:07.400Z,30.94
2018-05-25T16:39:35.764Z,30.81
2018-05-25T16:42:04.532Z,30.50
2018-05-25T16:44:32.931Z,30.72
2018-05-25T16:47:01.687Z,31.28
2018-05-25T16:49:30.054Z,31.89
2018-05-25T16:51:58.423Z,31.37
2018-05-25T16:54:26.795Z,31.00
2018-05-25T16:56:55.156Z,30.79
2018-05-25T16:59:23.539Z,30.94
2018-05-25T17:01:51.947Z,30.65
2018-05-25T17:04:20.332Z,30.97
2018-05-25T17:06:48.731Z,31.00
2018-05-25T17:09:17.091Z,30.35
2018-05-25T17:11:45.457Z,30.27
2018-05-25T17:14:13.872Z,30.22
2018-05-25T17:16:42.657Z,30.25
2018-05-25T17:19:11.038Z,30.39
2018-05-25T17:21:39.814Z,30.56
2018-05-25T17:24:08.182Z,30.52
2018-05-25T17:26:36.549Z,30.21
2018-05-25T17:29:04.948Z,29.55
2018-05-25T17:31:33.342Z,28.96
2018-05-25T17:34:02.169Z,29.29
2018-05-25T17:36:30.514Z,28.58
2018-05-25T17:38:59.304Z,28.21
2018-05-25T17:41:27.657Z,27.99
2018-05-25T17:43:56.169Z,27.74
2018-05-25T17:46:24.612Z,27.99
2018-05-25T17:48:53.035Z,27.66
2018-05-25T17:51:21.797Z,27.72
2018-05-25T17:53:50.169Z,27.42
2018-05-25T17:56:18.535Z,27.62
2018-05-25T17:58:46.919Z,28.08
2018-05-25T18:01:15.279Z,27.78
2018-05-25T18:03:43.713Z,28.14
2018-05-25T18:06:12.496Z,27.81
2018-05-25T18:08:41.268Z,27.60
2018-05-25T18:11:09.615Z,27.61
2018-05-25T18:13:37.986Z,27.43
2018-05-25T18:16:06.364Z,27.17
2018-05-25T18:18:34.742Z,27.32
2018-05-25T18:21:03.125Z,27.48
2018-05-25T18:23:31.524Z,26.60
2018-05-25T18:25:59.890Z,26.68
2018-05-25T18:28:28.310Z,26.94
2018-05-25T18:30:57.109Z,26.97
2018-05-25T18:33:25.515Z,27.18
2018-05-25T18:35:53.913Z,26.92
2018-05-25T18:38:22.270Z,26.80
2018-05-25T18:40:50.655Z,26.81
2018-05-25T18:43:19.083Z,27.09
2018-05-25T18:45:47.454Z,26.89
2018-05-25T18:48:15.804Z,26.90
2018-05-25T18:50:44.310Z,26.66
2018-05-25T18:53:12.673Z,26.75
2018-05-25T18:55:41.039Z,26.69
2018-05-25T18:58:09.459Z,26.72
2018-05-25T19:00:37.809Z,26.11
2018-05-25T19:03:06.215Z,25.99
2018-05-25T19:05:34.586Z,26.07
2018-05-25T19:08:02.983Z,26.16
2018-05-25T19:10:31.409Z,25.72
2018-05-25T19:12:59.766Z,25.95
2018-05-25T19:15:28.210Z,25.70
2018-05-25T19:17:56.579Z,25.68
2018-05-25T19:20:24.970Z,25.70
2018-05-25T19:22:53.319Z,25.75
2018-05-25T19:25:21.676Z,25.91
2018-05-25T19:27:50.031Z,25.54
2018-05-25T19:30:18.845Z,25.27
2018-05-25T19:32:47.206Z,25.39
2018-05-25T19:35:15.577Z,25.44
2018-05-25T19:37:44.354Z,25.25
2018-05-25T19:40:13.117Z,25.57
2018-05-25T19:42:41.494Z,25.67
2018-05-25T19:45:09.905Z,25.69
2018-05-25T19:47:38.278Z,25.75
2018-05-25T19:50:07.139Z,25.63
2018-05-25T19:52:35.524Z,25.32
2018-05-25T19:55:03.917Z,25.36
2018-05-25T19:57:32.368Z,25.37
2018-05-25T20:00:00.761Z,25.33
2018-05-25T20:02:29.138Z,25.52
2018-05-25T20:04:57.515Z,25.22
2018-05-25T20:07:25.884Z,25.22
2018-05-25T20:09:54.274Z,25.08
2018-05-25T20:12:22.641Z,25.29
2018-05-25T20:14:51.017Z,25.25
2018-05-25T20:17:19.429Z,25.29
2018-05-25T20:19:47.910Z,24.99
2018-05-25T20:22:16.382Z,24.82
2018-05-25T20:24:44.763Z,24.93
2018-05-25T20:27:13.122Z,25.05
2018-05-25T20:29:41.504Z,25.16
2018-05-25T20:32:09.890Z,25.11
2018-05-25T20:34:38.266Z,25.01
2018-05-25T20:37:06.750Z,24.98
2018-05-25T20:39:35.122Z,24.86
2018-05-25T20:42:03.536Z,24.65
2018-05-25T20:44:32.297Z,24.71
2018-05-25T20:47:00.680Z,24.78
2018-05-25T20:49:29.062Z,25.04
2018-05-25T20:51:57.633Z,24.82
2018-05-25T20:54:26.006Z,24.67
2018-05-25T20:56:54.381Z,24.74
2018-05-25T20:59:22.761Z,24.86
2018-05-25T21:01:51.137Z,24.56
2018-05-25T21:04:19.503Z,24.72
2018-05-25T21:06:47.895Z,24.38
2018-05-25T21:09:16.357Z,24.44
2018-05-25T21:11:44.727Z,23.88
2018-05-25T21:14:13.169Z,23.88
2018-05-25T21:16:42.045Z,23.98
2018-05-25T21:19:10.416Z,24.03
2018-05-25T21:21:38.813Z,23.98
2018-05-25T21:24:07.214Z,24.28
2018-05-25T21:26:35.990Z,24.64
2018-05-25T21:29:04.747Z,24.19
2018-05-25T21:31:33.230Z,24.80
2018-05-25T21:34:01.608Z,24.88
2018-05-25T21:36:30.005Z,24.36
2018-05-25T21:38:58.372Z,24.62
2018-05-25T21:41:26.734Z,25.12
2018-05-25T21:43:55.107Z,25.00
2018-05-25T21:46:23.495Z,24.82
2018-05-25T21:48:51.878Z,24.77
2018-05-25T21:51:20.250Z,24.33
2018-05-25T21:53:48.650Z,24.80
2018-05-25T21:56:17.022Z,24.42
2018-05-25T21:58:45.398Z,25.02
2018-05-25T22:01:13.862Z,24.92
2018-05-25T22:03:42.490Z,24.87
2018-05-25T22:06:11.486Z,24.99
2018-05-25T22:08:40.914Z,24.86
2018-05-25T22:11:10.462Z,24.99
2018-05-25T22:13:39.016Z,24.63
2018-05-25T22:16:07.410Z,24.75
2018-05-25T22:18:35.992Z,24.63
2018-05-25T22:21:04.986Z,24.65
2018-05-25T22:23:33.715Z,24.38
2018-05-25T22:26:02.184Z,24.10
2018-05-25T22:28:30.548Z,24.30
2018-05-25T22:30:58.958Z,24.19
2018-05-25T22:33:27.675Z,24.16
2018-05-25T22:35:56.510Z,23.83
2018-05-25T22:38:26.071Z,23.91
2018-05-25T22:40:55.375Z,23.76
2018-05-25T22:43:41.404Z,23.85
2018-05-25T22:46:29.253Z,23.76
2018-05-25T22:49:16.949Z,23.69
2018-05-25T22:52:04.153Z,23.62
2018-05-25T22:54:38.242Z,23.74
2018-05-25T22:57:06.662Z,23.52
2018-05-25T22:59:35.275Z,23.58
2018-05-25T23:02:03.792Z,23.89
2018-05-25T23:04:32.971Z,23.85
2018-05-25T23:07:16.997Z,23.64
2018-05-25T23:09:46.500Z,23.82
2018-05-25T23:12:16.370Z,23.93
2018-05-25T23:14:45.240Z,23.63
2018-05-25T23:17:14.120Z,23.72
2018-05-25T23:19:42.897Z,23.80
2018-05-25T23:22:12.240Z,23.70
2018-05-25T23:24:41.803Z,23.59
2018-05-25T23:27:11.703Z,23.64
2018-05-25T23:29:40.288Z,23.66
2018-05-25T23:32:09.678Z,23.87
2018-05-25T23:34:39.076Z,23.60
2018-05-25T23:37:08.766Z,23.67
2018-05-25T23:39:38.022Z,23.74
2018-05-25T23:42:07.644Z,23.81
2018-05-25T23:44:37.569Z,23.90
2018-05-25T23:47:07.185Z,23.81
2018-05-25T23:49:37.314Z,23.64
2018-05-25T23:52:06.502Z,23.53
2018-05-25T23:54:35.401Z,23.67
2018-05-25T23:57:04.506Z,23.28
2018-05-25T23:59:33.020Z,23.16
